Time;durP1;ratioP1;P1;durP2;ratioP2;P2;SDS_P1;SDS_P2;PMS_P1;PMS_P2;Temp;Humidity;BMP_temperature;BMP_pressure;BME280_temperature;BME280_humidity;BME280_pressure;Samples;Min_cycle;Max_cycle;Signal;HPM_P1;HPM_P2
2021/05/12 00:00:21;;;;;;;1.23;0.70;;;8.50;99.90;;;;;;2072274;28;20641;-70
2021/05/12 00:01:22;;;;;;;0.88;0.88;;;8.50;99.90;;;;;;2072167;28;20249;-70
2021/05/12 00:02:23;;;;;;;0.63;0.63;;;8.50;99.90;;;;;;2072987;28;20802;-70
2021/05/12 00:03:24;;;;;;;0.60;0.60;;;8.50;99.90;;;;;;2072883;28;20274;-70
2021/05/12 00:04:25;;;;;;;0.63;0.63;;;8.50;99.90;;;;;;2072824;28;20196;-70
2021/05/12 00:05:26;;;;;;;0.70;0.70;;;8.50;99.90;;;;;;2072925;28;20210;-70
2021/05/12 00:06:27;;;;;;;0.70;0.60;;;8.50;99.90;;;;;;2071897;28;20217;-70
2021/05/12 00:07:28;;;;;;;0.77;0.70;;;8.50;99.90;;;;;;2072392;28;20208;-70
2021/05/12 00:08:29;;;;;;;1.47;0.90;;;8.50;99.90;;;;;;2072772;28;20214;-70
2021/05/12 00:09:30;;;;;;;0.68;0.68;;;8.50;99.90;;;;;;2072242;28;20535;-70
2021/05/12 00:10:30;;;;;;;0.87;0.73;;;8.50;99.90;;;;;;2072214;28;20281;-70
2021/05/12 00:11:31;;;;;;;0.80;0.80;;;8.50;99.90;;;;;;2072554;28;20182;-70
2021/05/12 00:12:32;;;;;;;1.03;0.77;;;8.50;99.90;;;;;;2072779;28;20186;-70
2021/05/12 00:13:33;;;;;;;0.70;0.70;;;8.40;99.90;;;;;;2072788;28;20268;-70
2021/05/12 00:14:36;;;;;;;1.33;0.93;;;8.40;99.90;;;;;;2072715;28;20456;-70
2021/05/12 00:15:37;;;;;;;0.82;0.80;;;8.40;99.90;;;;;;2072192;28;20229;-70
2021/05/12 00:16:39;;;;;;;1.37;0.90;;;8.40;99.90;;;;;;2072031;28;20202;-70
2021/05/12 00:17:42;;;;;;;2.25;0.90;;;8.30;99.90;;;;;;2071920;28;20578;-71
2021/05/12 00:18:45;;;;;;;1.48;0.90;;;8.30;99.90;;;;;;2072140;28;20572;-70
2021/05/12 00:19:57;;;;;;;1.00;0.90;;;8.30;99.90;;;;;;2072777;28;20178;-71
2021/05/12 00:20:58;;;;;;;1.27;0.82;;;8.30;99.90;;;;;;2072035;28;20755;-71
2021/05/12 00:23:15;;;;;;;1.90;1.08;;;8.20;99.90;;;;;;2072035;28;20201;-71
2021/05/12 00:24:16;;;;;;;1.33;1.20;;;8.30;99.90;;;;;;2072502;28;20174;-71
2021/05/12 00:25:17;;;;;;;1.13;1.00;;;8.20;99.90;;;;;;2072682;28;20194;-71
2021/05/12 00:26:18;;;;;;;3.63;1.25;;;8.20;99.90;;;;;;2072700;28;20653;-70
2021/05/12 00:27:19;;;;;;;1.73;1.00;;;8.20;99.90;;;;;;2072657;28;20170;-71
2021/05/12 00:28:19;;;;;;;1.30;1.20;;;8.20;99.90;;;;;;2072650;28;20818;-71
2021/05/12 00:29:20;;;;;;;2.10;1.10;;;8.20;99.90;;;;;;2072676;28;20182;-71
2021/05/12 00:30:22;;;;;;;1.80;1.20;;;8.30;99.90;;;;;;2072887;28;20528;-71
2021/05/12 00:31:23;;;;;;;2.05;1.27;;;8.30;99.90;;;;;;2072412;28;20182;-71
2021/05/12 00:32:24;;;;;;;2.13;1.10;;;8.30;99.90;;;;;;2072708;28;20186;-71
2021/05/12 00:33:24;;;;;;;1.20;1.10;;;8.30;99.90;;;;;;2072480;28;20209;-71
2021/05/12 00:34:25;;;;;;;1.10;1.00;;;8.30;99.90;;;;;;2072738;28;20185;-71
2021/05/12 00:35:26;;;;;;;1.87;1.20;;;8.30;99.90;;;;;;2072581;28;20213;-71
2021/05/12 00:36:27;;;;;;;1.27;1.10;;;8.30;99.90;;;;;;2071931;28;20212;-71
2021/05/12 00:37:28;;;;;;;1.10;0.90;;;8.30;99.90;;;;;;2072156;28;20182;-71
2021/05/12 00:38:28;;;;;;;1.53;1.10;;;8.30;99.90;;;;;;2072111;28;20649;-71
2021/05/12 00:39:30;;;;;;;1.83;1.00;;;8.20;99.90;;;;;;2072420;28;20182;-71
2021/05/12 00:40:30;;;;;;;1.15;1.10;;;8.30;99.90;;;;;;2072079;28;20181;-71
2021/05/12 00:41:34;;;;;;;0.93;0.93;;;8.30;99.90;;;;;;2071816;28;20263;-71
2021/05/12 00:42:35;;;;;;;1.48;1.17;;;8.30;99.90;;;;;;2072161;28;20178;-71
2021/05/12 00:43:36;;;;;;;1.50;1.30;;;8.30;99.90;;;;;;2063905;28;20178;-71
2021/05/12 00:44:37;;;;;;;2.77;1.20;;;8.30;99.90;;;;;;2071925;28;20769;-71
2021/05/12 00:45:37;;;;;;;1.40;1.30;;;8.30;99.90;;;;;;2072625;28;20281;-71
2021/05/12 00:46:44;;;;;;;1.50;1.10;;;8.30;99.90;;;;;;2072534;28;20665;-71
2021/05/12 00:47:48;;;;;;;2.13;1.15;;;8.20;99.90;;;;;;2071838;28;20196;-71
2021/05/12 00:48:49;;;;;;;1.52;0.95;;;8.20;99.90;;;;;;2072106;28;20662;-71
2021/05/12 00:49:50;;;;;;;1.43;1.30;;;8.20;99.90;;;;;;2072418;28;20215;-71
2021/05/12 00:50:50;;;;;;;1.87;1.13;;;8.20;99.90;;;;;;2072670;28;20605;-71
2021/05/12 00:51:51;;;;;;;1.17;1.07;;;8.20;99.90;;;;;;2072488;28;20210;-71
2021/05/12 00:52:52;;;;;;;1.63;1.30;;;8.20;99.90;;;;;;2071980;28;20223;-71
2021/05/12 00:53:53;;;;;;;1.35;1.25;;;8.20;99.90;;;;;;2072018;28;20184;-71
2021/05/12 00:54:53;;;;;;;2.47;1.30;;;8.20;99.90;;;;;;2072688;28;20685;-71
2021/05/12 00:55:57;;;;;;;1.20;1.03;;;8.30;99.90;;;;;;2071747;28;20189;-71
2021/05/12 00:56:58;;;;;;;1.25;1.10;;;8.30;99.90;;;;;;2064099;28;20261;-71
2021/05/12 00:57:59;;;;;;;1.70;1.17;;;8.20;99.90;;;;;;2072030;28;20646;-71
2021/05/12 00:59:01;;;;;;;1.60;1.37;;;8.20;99.90;;;;;;2071950;28;20200;-71
2021/05/12 01:00:06;;;;;;;1.70;1.35;;;8.10;99.90;;;;;;2072117;28;20252;-71
2021/05/12 01:01:08;;;;;;;2.05;1.40;;;8.20;99.90;;;;;;2071758;28;20200;-71
2021/05/12 01:02:10;;;;;;;2.08;1.52;;;8.10;99.90;;;;;;2071811;28;20190;-71
2021/05/12 01:03:12;;;;;;;1.45;1.35;;;8.20;99.90;;;;;;2063919;28;20218;-71
2021/05/12 01:04:13;;;;;;;1.70;1.50;;;8.10;99.90;;;;;;2072022;28;20680;-71
2021/05/12 01:05:24;;;;;;;3.37;1.60;;;8.10;99.90;;;;;;2072439;28;20205;-71
2021/05/12 01:06:30;;;;;;;3.17;2.10;;;8.10;99.90;;;;;;2071697;28;20206;-70
2021/05/12 01:07:31;;;;;;;2.15;1.95;;;8.10;99.90;;;;;;2063839;28;20202;-71
2021/05/12 01:08:32;;;;;;;3.10;1.80;;;8.10;99.90;;;;;;2063848;28;20569;-70
2021/05/12 01:09:33;;;;;;;2.67;1.83;;;8.10;99.90;;;;;;2072596;28;20178;-70
2021/05/12 01:10:35;;;;;;;3.23;1.73;;;8.10;99.90;;;;;;2073260;28;20186;-70
2021/05/12 01:11:37;;;;;;;3.03;2.10;;;8.10;99.90;;;;;;2073101;28;20432;-70
2021/05/12 01:12:37;;;;;;;3.47;2.22;;;8.10;99.90;;;;;;2073457;28;20177;-70
2021/05/12 01:13:38;;;;;;;4.93;2.60;;;8.10;99.90;;;;;;2073968;28;20311;-70
2021/05/12 01:14:39;;;;;;;2.35;2.13;;;8.10;99.90;;;;;;2074068;28;20514;-69
2021/05/12 01:15:41;;;;;;;3.43;2.83;;;8.10;99.90;;;;;;2074027;28;20269;-70
2021/05/12 01:16:43;;;;;;;3.22;2.35;;;8.10;99.90;;;;;;2065070;28;20337;-70
2021/05/12 01:17:44;;;;;;;4.22;2.72;;;8.00;99.90;;;;;;2065131;28;20254;-70
2021/05/12 01:18:45;;;;;;;5.10;2.70;;;8.00;99.90;;;;;;2074023;28;20234;-70
2021/05/12 01:19:45;;;;;;;3.70;2.65;;;8.00;99.90;;;;;;2073319;28;20235;-70
2021/05/12 01:21:07;;;;;;;4.70;2.70;;;8.00;99.90;;;;;;2065157;28;20224;-70
2021/05/12 01:22:10;;;;;;;4.55;2.88;;;8.00;99.90;;;;;;2067973;28;20202;-70
2021/05/12 01:23:11;;;;;;;5.25;2.92;;;8.00;99.90;;;;;;2073359;28;20178;-70
2021/05/12 01:24:12;;;;;;;3.83;2.53;;;8.10;99.90;;;;;;2081538;28;20581;-70
2021/05/12 01:25:13;;;;;;;5.53;3.10;;;8.00;99.90;;;;;;2073689;28;20327;-69
2021/05/12 01:26:20;;;;;;;4.50;3.40;;;8.10;99.90;;;;;;2073117;28;20390;-70
2021/05/12 01:27:21;;;;;;;3.55;3.00;;;8.10;99.90;;;;;;2073377;28;20169;-70
2021/05/12 01:28:25;;;;;;;5.43;3.17;;;8.10;99.90;;;;;;2073730;28;20189;-70
2021/05/12 01:29:25;;;;;;;4.55;3.33;;;8.10;99.90;;;;;;2073659;28;20593;-70
2021/05/12 01:30:26;;;;;;;5.83;3.60;;;8.00;99.90;;;;;;2074023;28;20224;-70
2021/05/12 01:31:36;;;;;;;5.00;3.37;;;8.00;99.90;;;;;;2072971;28;20181;-71
2021/05/12 01:32:38;;;;;;;6.78;3.80;;;8.10;99.90;;;;;;2073417;28;20692;-70
2021/05/12 01:33:41;;;;;;;4.85;3.40;;;8.10;99.90;;;;;;2073667;28;20232;-71
2021/05/12 01:34:41;;;;;;;4.35;3.28;;;8.10;99.90;;;;;;2073245;28;20259;-71
2021/05/12 01:35:42;;;;;;;5.53;3.20;;;8.10;99.90;;;;;;2073245;28;20228;-70
2021/05/12 01:36:45;;;;;;;3.83;3.00;;;8.10;99.90;;;;;;2073236;28;20185;-71
2021/05/12 01:37:46;;;;;;;2.83;2.33;;;8.10;99.90;;;;;;2065291;28;20174;-70
2021/05/12 01:38:49;;;;;;;3.97;2.97;;;8.20;99.90;;;;;;2073043;28;20174;-70
2021/05/12 01:39:50;;;;;;;3.13;2.83;;;8.20;99.90;;;;;;2073083;28;20173;-70
2021/05/12 01:40:51;;;;;;;2.90;2.10;;;8.20;99.90;;;;;;2073681;28;20183;-70
2021/05/12 01:41:52;;;;;;;3.95;2.60;;;8.20;99.90;;;;;;2073675;28;20253;-71
2021/05/12 01:42:53;;;;;;;2.40;2.17;;;8.20;99.90;;;;;;2074049;28;20178;-70
2021/05/12 01:43:56;;;;;;;2.60;1.87;;;8.20;99.90;;;;;;2073896;28;20177;-71
2021/05/12 01:45:09;;;;;;;2.65;2.10;;;8.20;99.90;;;;;;2072724;28;20206;-71
2021/05/12 01:46:10;;;;;;;2.55;2.00;;;8.20;99.90;;;;;;2073198;28;20193;-71
2021/05/12 01:47:11;;;;;;;1.80;1.70;;;8.30;99.90;;;;;;2073310;28;20183;-71
2021/05/12 01:48:12;;;;;;;2.27;2.03;;;8.30;99.90;;;;;;2065113;28;20241;-71
2021/05/12 01:49:13;;;;;;;2.53;1.80;;;8.30;99.90;;;;;;2073446;28;20653;-70
2021/05/12 01:50:14;;;;;;;2.43;1.60;;;8.30;99.90;;;;;;2081136;28;20188;-71
2021/05/12 01:51:16;;;;;;;1.67;1.58;;;8.30;99.90;;;;;;2073531;28;20518;-71
2021/05/12 01:52:17;;;;;;;2.65;1.42;;;8.30;99.90;;;;;;2073189;28;20190;-71
2021/05/12 01:53:19;;;;;;;1.53;1.43;;;8.20;99.90;;;;;;2073159;28;20208;-70
2021/05/12 01:54:19;;;;;;;1.90;1.50;;;8.30;99.90;;;;;;2073103;28;20700;-70
2021/05/12 01:55:20;;;;;;;2.93;1.33;;;8.30;99.90;;;;;;2073078;28;20182;-70
2021/05/12 01:56:21;;;;;;;1.33;1.23;;;8.30;99.90;;;;;;2073719;28;20229;-70
2021/05/12 01:57:22;;;;;;;1.33;1.23;;;8.30;99.90;;;;;;2073711;28;20186;-70
2021/05/12 01:58:24;;;;;;;1.93;1.10;;;8.30;99.90;;;;;;2073698;28;20828;-70
2021/05/12 01:59:25;;;;;;;2.05;1.20;;;8.30;99.90;;;;;;2073022;28;20181;-70
2021/05/12 02:00:31;;;;;;;1.20;1.10;;;8.40;99.90;;;;;;2073079;28;20197;-70
2021/05/12 02:01:33;;;;;;;1.13;1.00;;;8.30;99.90;;;;;;2073377;28;20264;-70
2021/05/12 02:02:33;;;;;;;1.10;0.90;;;8.30;99.90;;;;;;2073090;28;20217;-70
2021/05/12 02:03:34;;;;;;;0.70;0.70;;;8.30;99.90;;;;;;2073022;28;20185;-70
2021/05/12 02:04:38;;;;;;;2.47;1.03;;;8.30;99.90;;;;;;2072981;28;20185;-70
2021/05/12 02:05:42;;;;;;;1.20;0.90;;;8.30;99.90;;;;;;2072845;28;20210;-70
2021/05/12 02:06:43;;;;;;;1.10;0.90;;;8.30;99.90;;;;;;2072843;28;20209;-70
2021/05/12 02:07:44;;;;;;;1.10;1.00;;;8.30;99.90;;;;;;2070529;28;20185;-70
2021/05/12 02:08:45;;;;;;;1.02;0.70;;;8.30;99.90;;;;;;2064773;28;20189;-70
2021/05/12 02:09:52;;;;;;;0.77;0.70;;;8.30;99.90;;;;;;2064626;28;20178;-70
2021/05/12 02:11:03;;;;;;;0.70;0.70;;;8.30;99.90;;;;;;2065469;28;20271;-70
2021/05/12 02:12:04;;;;;;;0.60;0.60;;;8.30;99.90;;;;;;2065153;28;20174;-70
2021/05/12 02:13:05;;;;;;;0.77;0.57;;;8.30;99.90;;;;;;2065432;28;20233;-70
2021/05/12 02:14:07;;;;;;;0.50;0.50;;;8.20;99.90;;;;;;2065279;28;20217;-71
2021/05/12 02:15:12;;;;;;;1.13;0.70;;;8.20;99.90;;;;;;2065342;28;20558;-70
2021/05/12 02:16:12;;;;;;;0.50;0.50;;;8.20;99.90;;;;;;2064652;28;20251;-71
2021/05/12 02:17:13;;;;;;;0.80;0.70;;;8.30;99.90;;;;;;2064859;28;20661;-70
2021/05/12 02:18:14;;;;;;;0.97;0.63;;;8.30;99.90;;;;;;2065421;28;20870;-71
2021/05/12 02:19:15;;;;;;;0.70;0.70;;;8.30;99.90;;;;;;2064841;28;20174;-70
2021/05/12 02:20:20;;;;;;;0.80;0.60;;;8.30;99.90;;;;;;2064677;28;20241;-71
2021/05/12 02:21:21;;;;;;;0.70;0.60;;;8.30;99.90;;;;;;2064328;28;20677;-70
2021/05/12 02:22:21;;;;;;;0.57;0.57;;;8.40;99.90;;;;;;2064603;28;20179;-70
2021/05/12 02:23:24;;;;;;;0.60;0.60;;;8.30;99.90;;;;;;2065431;28;20198;-71
2021/05/12 02:24:25;;;;;;;1.95;0.60;;;8.40;99.90;;;;;;2065299;28;20179;-71
2021/05/12 02:25:27;;;;;;;0.97;0.50;;;8.40;99.90;;;;;;2065271;28;20213;-71
2021/05/12 02:26:28;;;;;;;0.60;0.50;;;8.40;99.90;;;;;;2064450;28;20206;-71
2021/05/12 02:27:28;;;;;;;0.50;0.47;;;8.40;99.90;;;;;;2064687;28;20170;-71
2021/05/12 02:28:30;;;;;;;0.63;0.60;;;8.30;99.90;;;;;;2065303;28;20189;-71
2021/05/12 02:29:30;;;;;;;0.50;0.50;;;8.30;99.90;;;;;;2064461;28;20205;-71
2021/05/12 02:30:32;;;;;;;0.83;0.50;;;8.40;99.90;;;;;;2064727;28;20178;-71
2021/05/12 02:31:33;;;;;;;0.52;0.50;;;8.30;99.90;;;;;;2064393;28;20232;-71
2021/05/12 02:32:33;;;;;;;1.00;0.90;;;8.30;99.90;;;;;;2064737;28;20626;-71
2021/05/12 02:33:34;;;;;;;0.40;0.40;;;8.30;99.90;;;;;;2064506;28;20186;-71
2021/05/12 02:34:35;;;;;;;0.40;0.40;;;8.30;99.90;;;;;;2064665;28;20210;-71
2021/05/12 02:35:36;;;;;;;0.80;0.40;;;8.20;99.90;;;;;;2065168;28;20210;-71
2021/05/12 02:36:37;;;;;;;0.50;0.50;;;8.10;99.90;;;;;;2065365;28;20209;-71
2021/05/12 02:37:38;;;;;;;0.70;0.70;;;8.20;99.90;;;;;;2065209;28;20182;-71
2021/05/12 02:38:39;;;;;;;0.50;0.40;;;8.20;99.90;;;;;;2056462;28;20647;-71
2021/05/12 02:39:39;;;;;;;0.50;0.50;;;8.20;99.90;;;;;;2056531;28;20183;-71
2021/05/12 02:40:41;;;;;;;0.40;0.40;;;8.20;99.90;;;;;;2065256;28;20182;-71
2021/05/12 02:41:41;;;;;;;0.47;0.40;;;8.20;99.90;;;;;;2064927;28;20186;-71
2021/05/12 02:42:42;;;;;;;0.40;0.40;;;8.20;99.90;;;;;;2065306;28;20586;-71
2021/05/12 02:43:43;;;;;;;0.40;0.40;;;8.20;99.90;;;;;;2065028;28;20186;-71
2021/05/12 02:44:44;;;;;;;0.40;0.40;;;8.20;99.90;;;;;;2064338;28;20651;-71
2021/05/12 02:45:45;;;;;;;0.30;0.30;;;8.20;99.90;;;;;;2064524;28;20186;-71
2021/05/12 02:46:46;;;;;;;0.30;0.30;;;8.20;99.90;;;;;;2065068;28;20201;-71
2021/05/12 02:48:00;;;;;;;0.30;0.30;;;8.20;99.90;;;;;;2064633;28;20175;-71
2021/05/12 02:49:01;;;;;;;0.40;0.40;;;8.20;99.90;;;;;;2064539;28;20170;-71
2021/05/12 02:50:05;;;;;;;0.93;0.40;;;8.10;99.90;;;;;;2064425;28;20178;-71
2021/05/12 02:51:05;;;;;;;0.20;0.20;;;8.10;99.90;;;;;;2065215;28;20178;-71
2021/05/12 02:52:07;;;;;;;0.57;0.30;;;8.10;99.90;;;;;;2064939;28;20190;-70
2021/05/12 02:53:10;;;;;;;0.30;0.30;;;8.00;99.90;;;;;;2065115;28;20187;-71
2021/05/12 02:54:11;;;;;;;0.30;0.30;;;7.90;99.90;;;;;;2065126;28;20233;-71
2021/05/12 02:55:12;;;;;;;0.27;0.27;;;7.90;99.90;;;;;;2065064;28;20255;-71
2021/05/12 02:56:12;;;;;;;0.30;0.30;;;7.80;99.90;;;;;;2064951;28;20273;-71
2021/05/12 02:57:13;;;;;;;0.20;0.20;;;7.80;99.90;;;;;;2065089;28;20511;-71
2021/05/12 02:58:15;;;;;;;0.30;0.30;;;7.80;99.90;;;;;;2064393;28;20178;-71
2021/05/12 02:59:15;;;;;;;0.40;0.40;;;7.80;99.90;;;;;;2064672;28;20186;-71
2021/05/12 03:00:20;;;;;;;0.37;0.37;;;7.90;99.90;;;;;;2064342;28;20654;-71
2021/05/12 03:01:20;;;;;;;0.30;0.30;;;7.90;99.90;;;;;;2064324;28;20190;-71
2021/05/12 03:02:21;;;;;;;0.70;0.30;;;7.90;99.90;;;;;;2065049;28;20273;-70
2021/05/12 03:03:22;;;;;;;0.30;0.30;;;7.90;99.90;;;;;;2065044;28;20273;-70
2021/05/12 03:04:23;;;;;;;0.30;0.30;;;7.90;99.90;;;;;;2065019;28;20190;-70
2021/05/12 03:05:26;;;;;;;0.20;0.20;;;7.90;99.90;;;;;;2064852;28;20214;-71
2021/05/12 03:06:26;;;;;;;0.30;0.30;;;7.90;99.90;;;;;;2064326;28;20225;-70
2021/05/12 03:07:27;;;;;;;0.30;0.30;;;7.90;99.90;;;;;;2064484;28;20182;-70
2021/05/12 03:08:28;;;;;;;0.20;0.20;;;7.80;99.90;;;;;;2065073;28;20569;-70
2021/05/12 03:09:29;;;;;;;0.40;0.40;;;7.80;99.90;;;;;;2065214;28;20210;-70
2021/05/12 03:10:33;;;;;;;0.50;0.40;;;7.80;99.90;;;;;;2064985;28;20611;-70
2021/05/12 03:11:35;;;;;;;0.90;0.40;;;7.80;99.90;;;;;;2064685;28;20208;-70
2021/05/12 03:12:36;;;;;;;0.30;0.30;;;7.80;99.90;;;;;;2064986;28;20252;-71
2021/05/12 03:13:36;;;;;;;0.40;0.40;;;7.80;99.90;;;;;;2065143;28;20201;-71
2021/05/12 03:14:37;;;;;;;0.30;0.30;;;7.80;99.90;;;;;;2064881;28;20174;-71
2021/05/12 03:15:39;;;;;;;0.30;0.30;;;7.80;99.90;;;;;;2065149;28;20185;-70
2021/05/12 03:16:40;;;;;;;0.40;0.40;;;7.80;99.90;;;;;;2064030;28;20202;-70
2021/05/12 03:17:41;;;;;;;0.20;0.20;;;7.80;99.90;;;;;;2064496;28;20184;-70
2021/05/12 03:18:41;;;;;;;0.30;0.30;;;7.70;99.90;;;;;;2064858;28;20185;-71
2021/05/12 03:19:42;;;;;;;0.33;0.33;;;7.70;99.90;;;;;;2065147;28;20206;-70
2021/05/12 03:20:43;;;;;;;0.40;0.40;;;7.70;99.90;;;;;;2065016;28;20170;-71
2021/05/12 03:21:43;;;;;;;0.50;0.50;;;7.70;99.90;;;;;;2064152;28;20205;-70
2021/05/12 03:22:45;;;;;;;0.40;0.40;;;7.70;99.90;;;;;;2064392;28;20190;-70
2021/05/12 03:23:48;;;;;;;0.30;0.30;;;7.70;99.90;;;;;;2065039;28;20230;-71
2021/05/12 03:24:49;;;;;;;0.30;0.30;;;7.70;99.90;;;;;;2064863;28;20197;-71
2021/05/12 03:25:49;;;;;;;0.30;0.30;;;7.70;99.90;;;;;;2065103;28;20582;-70
2021/05/12 03:26:51;;;;;;;0.30;0.30;;;7.70;99.90;;;;;;2064734;28;20285;-70
2021/05/12 03:27:53;;;;;;;1.27;0.50;;;7.60;99.90;;;;;;2064830;28;20265;-70
2021/05/12 03:28:54;;;;;;;0.20;0.20;;;7.60;99.90;;;;;;2064925;28;20273;-71
2021/05/12 03:29:55;;;;;;;0.30;0.30;;;7.70;99.90;;;;;;2064354;28;20249;-70
2021/05/12 03:30:55;;;;;;;0.33;0.30;;;7.70;99.90;;;;;;2064440;28;20174;-70
2021/05/12 03:31:56;;;;;;;0.20;0.20;;;7.70;99.90;;;;;;2064747;28;20623;-70
2021/05/12 03:32:58;;;;;;;0.30;0.30;;;7.70;99.90;;;;;;2064174;28;20178;-70
2021/05/12 03:33:58;;;;;;;0.30;0.30;;;7.60;99.90;;;;;;2064313;28;20178;-70
2021/05/12 03:34:59;;;;;;;0.40;0.40;;;7.70;99.90;;;;;;2064427;28;20213;-70
2021/05/12 03:36:00;;;;;;;0.33;0.33;;;7.70;99.90;;;;;;2064230;28;20284;-70
2021/05/12 03:37:00;;;;;;;0.30;0.30;;;7.70;99.90;;;;;;2064374;28;20186;-71
2021/05/12 03:38:02;;;;;;;0.20;0.20;;;7.70;99.90;;;;;;2064783;28;20190;-72
2021/05/12 03:39:05;;;;;;;0.30;0.30;;;7.60;99.90;;;;;;2064282;28;20174;-70
2021/05/12 03:40:07;;;;;;;0.40;0.30;;;7.60;99.90;;;;;;2064144;28;20724;-70
2021/05/12 03:41:08;;;;;;;0.85;0.30;;;7.60;99.90;;;;;;2064197;28;20229;-71
2021/05/12 03:42:09;;;;;;;0.28;0.28;;;7.50;99.90;;;;;;2064806;28;20194;-70
2021/05/12 03:43:10;;;;;;;1.10;0.30;;;7.50;99.90;;;;;;2064698;28;20184;-70
2021/05/12 03:44:11;;;;;;;0.30;0.30;;;7.50;99.90;;;;;;2064870;28;20206;-70
2021/05/12 03:45:12;;;;;;;0.20;0.20;;;7.50;99.90;;;;;;2064770;28;20198;-70
2021/05/12 03:46:13;;;;;;;0.63;0.38;;;7.50;99.90;;;;;;2064646;28;20236;-70
2021/05/12 03:47:14;;;;;;;0.73;0.30;;;7.50;99.90;;;;;;2064754;28;20190;-70
2021/05/12 03:48:14;;;;;;;0.30;0.30;;;7.50;99.90;;;;;;2063921;28;20178;-70
2021/05/12 03:49:15;;;;;;;0.20;0.20;;;7.50;99.90;;;;;;2063977;28;20280;-70
2021/05/12 03:50:18;;;;;;;1.03;0.50;;;7.40;99.90;;;;;;2064756;28;20202;-70
2021/05/12 03:51:19;;;;;;;0.50;0.43;;;7.40;99.90;;;;;;2072442;28;20914;-70
2021/05/12 03:52:20;;;;;;;0.40;0.40;;;7.40;99.90;;;;;;2072114;28;20186;-70
2021/05/12 03:53:21;;;;;;;0.40;0.40;;;7.40;99.90;;;;;;2072232;28;20181;-70
2021/05/12 03:54:22;;;;;;;0.47;0.47;;;7.40;99.90;;;;;;2072603;28;20174;-70
2021/05/12 03:55:24;;;;;;;0.73;0.40;;;7.40;99.90;;;;;;2072195;28;20424;-70
2021/05/12 03:56:25;;;;;;;0.35;0.35;;;7.40;99.90;;;;;;2071993;28;20205;-70
2021/05/12 03:57:25;;;;;;;1.17;0.50;;;7.40;99.90;;;;;;2072828;28;20643;-70
2021/05/12 03:58:26;;;;;;;0.60;0.50;;;7.40;99.90;;;;;;2072620;28;20236;-70
2021/05/12 03:59:27;;;;;;;0.50;0.40;;;7.40;99.90;;;;;;2072625;28;20185;-70
2021/05/12 04:00:28;;;;;;;0.30;0.30;;;7.40;99.90;;;;;;2072050;28;20424;-71
2021/05/12 04:01:29;;;;;;;0.40;0.40;;;7.40;99.90;;;;;;2071974;28;20232;-71
2021/05/12 04:02:30;;;;;;;0.30;0.30;;;7.40;99.90;;;;;;2072049;28;20686;-70
2021/05/12 04:03:31;;;;;;;0.40;0.40;;;7.30;99.90;;;;;;2072262;28;20181;-70
2021/05/12 04:04:32;;;;;;;0.40;0.40;;;7.30;99.90;;;;;;2072669;28;20177;-70
2021/05/12 04:05:33;;;;;;;0.40;0.40;;;7.30;99.90;;;;;;2072557;28;20684;-70
2021/05/12 04:06:35;;;;;;;0.40;0.40;;;7.40;99.90;;;;;;2072525;28;20214;-70
2021/05/12 04:07:36;;;;;;;0.30;0.30;;;7.30;99.90;;;;;;2072131;28;20174;-71
2021/05/12 04:08:37;;;;;;;1.40;0.50;;;7.40;99.90;;;;;;2072037;28;20268;-71
2021/05/12 04:09:37;;;;;;;0.63;0.30;;;7.30;99.90;;;;;;2072744;28;20177;-70
2021/05/12 04:10:38;;;;;;;0.30;0.30;;;7.30;99.90;;;;;;2072543;28;20213;-71
2021/05/12 04:11:40;;;;;;;0.30;0.30;;;7.20;99.90;;;;;;2072573;28;20252;-71
2021/05/12 04:12:40;;;;;;;0.65;0.40;;;7.10;99.90;;;;;;2072557;28;20188;-70
2021/05/12 04:13:41;;;;;;;0.70;0.50;;;7.10;99.90;;;;;;2072801;28;20700;-70
2021/05/12 04:14:42;;;;;;;0.50;0.50;;;7.00;99.90;;;;;;2072656;28;20185;-70
2021/05/12 04:15:42;;;;;;;0.90;0.60;;;7.00;99.90;;;;;;2072554;28;20178;-70
2021/05/12 04:16:43;;;;;;;0.67;0.60;;;7.00;99.90;;;;;;2072091;28;20194;-70
2021/05/12 04:17:44;;;;;;;0.60;0.60;;;7.00;99.90;;;;;;2072010;28;20203;-70
2021/05/12 04:18:44;;;;;;;1.10;0.60;;;7.00;99.90;;;;;;2072655;28;20629;-71
2021/05/12 04:19:45;;;;;;;0.50;0.50;;;7.00;99.90;;;;;;2072596;28;20224;-70
2021/05/12 04:20:46;;;;;;;0.60;0.60;;;6.90;99.90;;;;;;2072760;28;20183;-71
2021/05/12 04:21:46;;;;;;;0.70;0.63;;;7.00;99.90;;;;;;2072275;28;20169;-70
2021/05/12 04:22:47;;;;;;;0.63;0.60;;;7.00;99.90;;;;;;2072042;28;20184;-70
2021/05/12 04:23:48;;;;;;;0.85;0.68;;;7.00;99.90;;;;;;2071984;28;20178;-70
2021/05/12 04:24:49;;;;;;;1.33;0.80;;;7.00;99.90;;;;;;2072022;28;20198;-70
2021/05/12 04:25:49;;;;;;;0.60;0.60;;;7.00;99.90;;;;;;2072646;28;20725;-70
2021/05/12 04:26:51;;;;;;;0.60;0.60;;;7.00;99.90;;;;;;2072361;28;20303;-71
2021/05/12 04:27:52;;;;;;;1.27;0.93;;;7.00;99.90;;;;;;2081212;23;20602;-66
2021/05/12 04:28:53;;;;;;;0.70;0.70;;;7.10;99.90;;;;;;2063721;28;20220;-67
2021/05/12 04:29:54;;;;;;;1.07;0.60;;;7.10;99.90;;;;;;2063574;28;20177;-66
2021/05/12 04:30:54;;;;;;;3.17;0.80;;;7.00;99.90;;;;;;2063663;28;20417;-66
2021/05/12 04:31:55;;;;;;;2.00;0.70;;;7.10;99.90;;;;;;2063886;28;20179;-66
2021/05/12 04:32:59;;;;;;;1.00;0.70;;;7.00;99.90;;;;;;2064270;28;20182;-65
2021/05/12 04:34:00;;;;;;;1.00;0.90;;;7.00;99.90;;;;;;2071607;28;20177;-65
2021/05/12 04:35:01;;;;;;;1.52;0.70;;;7.00;99.90;;;;;;2071789;28;20189;-66
2021/05/12 04:36:02;;;;;;;1.45;0.90;;;7.10;99.90;;;;;;2064159;28;20256;-66
2021/05/12 04:37:03;;;;;;;1.33;0.97;;;7.10;99.90;;;;;;2064123;28;20700;-67
2021/05/12 04:38:04;;;;;;;1.25;0.70;;;7.00;99.90;;;;;;2056426;28;20202;-66
2021/05/12 04:39:06;;;;;;;1.83;1.00;;;7.10;99.90;;;;;;2055926;28;20563;-66
2021/05/12 04:40:08;;;;;;;1.35;0.80;;;7.10;99.90;;;;;;2056327;28;20180;-66
2021/05/12 04:41:09;;;;;;;1.02;0.70;;;7.00;99.90;;;;;;2056386;28;20281;-67
2021/05/12 04:42:10;;;;;;;0.60;0.60;;;7.10;99.90;;;;;;2056313;28;20266;-66
2021/05/12 04:43:11;;;;;;;1.07;0.70;;;7.00;99.90;;;;;;2056393;28;20473;-66
2021/05/12 04:44:12;;;;;;;1.15;0.80;;;7.10;99.90;;;;;;2057523;28;20194;-66
2021/05/12 04:45:16;;;;;;;2.10;0.90;;;7.00;99.90;;;;;;2058114;28;20198;-67
2021/05/12 04:46:17;;;;;;;1.60;0.95;;;7.00;99.90;;;;;;2058168;28;20791;-66
2021/05/12 04:47:17;;;;;;;1.60;0.97;;;7.00;99.90;;;;;;2058071;28;20193;-65
2021/05/12 04:48:18;;;;;;;1.03;0.93;;;7.00;99.90;;;;;;2057933;28;20172;-66
2021/05/12 04:49:19;;;;;;;1.02;1.00;;;6.90;99.90;;;;;;2058085;28;20183;-66
2021/05/12 04:50:23;;;;;;;3.27;0.90;;;6.90;99.90;;;;;;2057909;28;20530;-66
2021/05/12 04:51:24;;;;;;;1.20;1.10;;;6.90;99.90;;;;;;2056962;28;20186;-65
2021/05/12 04:52:25;;;;;;;3.17;1.00;;;6.90;99.90;;;;;;2057223;28;20589;-67
2021/05/12 04:53:26;;;;;;;1.33;0.90;;;6.90;99.90;;;;;;2057838;28;20265;-66
2021/05/12 04:54:27;;;;;;;2.58;1.13;;;6.90;99.90;;;;;;2057873;28;20185;-66
2021/05/12 04:55:28;;;;;;;1.30;1.20;;;6.90;99.90;;;;;;2058079;28;20860;-66
2021/05/12 04:56:28;;;;;;;3.25;1.50;;;6.80;99.90;;;;;;2057850;28;20193;-65
2021/05/12 04:57:29;;;;;;;3.93;1.60;;;6.90;99.90;;;;;;2057819;28;20209;-66
2021/05/12 04:58:31;;;;;;;3.17;1.50;;;6.90;99.90;;;;;;2057794;28;20182;-66
2021/05/12 04:59:31;;;;;;;1.77;1.40;;;6.90;99.90;;;;;;2057749;28;20191;-66
2021/05/12 05:00:32;;;;;;;5.07;1.73;;;7.00;99.90;;;;;;2057960;28;20222;-66
2021/05/12 05:01:33;;;;;;;2.37;1.53;;;7.00;99.90;;;;;;2065084;28;20662;-66
2021/05/12 05:02:34;;;;;;;3.97;1.67;;;6.90;99.90;;;;;;2065700;28;20178;-66
2021/05/12 05:03:41;;;;;;;3.22;1.50;;;6.90;99.90;;;;;;2058250;28;20549;-65
2021/05/12 05:04:42;;;;;;;3.42;1.42;;;6.90;99.90;;;;;;2058171;28;20191;-66
2021/05/12 05:05:43;;;;;;;2.80;1.57;;;6.90;99.90;;;;;;2058242;28;20250;-66
2021/05/12 05:06:43;;;;;;;1.70;1.50;;;6.90;99.90;;;;;;2058220;28;20936;-66
2021/05/12 05:07:45;;;;;;;2.80;1.70;;;6.80;99.90;;;;;;2057656;28;20234;-66
2021/05/12 05:08:46;;;;;;;2.42;1.67;;;6.90;99.90;;;;;;2057702;28;20179;-65
2021/05/12 05:09:47;;;;;;;2.67;1.75;;;6.90;99.90;;;;;;2056848;28;20191;-66
2021/05/12 05:10:48;;;;;;;3.97;1.93;;;6.90;99.90;;;;;;2057163;28;20202;-66
2021/05/12 05:11:49;;;;;;;3.00;1.60;;;7.00;99.90;;;;;;2057439;28;20724;-67
2021/05/12 05:12:50;;;;;;;2.40;1.60;;;7.00;99.90;;;;;;2057775;28;20269;-65
2021/05/12 05:13:51;;;;;;;2.95;1.73;;;7.00;99.90;;;;;;2057691;28;20237;-66
2021/05/12 05:14:52;;;;;;;2.77;1.73;;;7.00;99.90;;;;;;2064902;28;20237;-67
2021/05/12 05:15:52;;;;;;;2.60;1.77;;;7.00;99.90;;;;;;2065014;28;20170;-66
2021/05/12 05:16:53;;;;;;;2.70;1.80;;;7.10;99.90;;;;;;2057755;28;20552;-66
2021/05/12 05:17:54;;;;;;;3.88;1.98;;;7.10;99.90;;;;;;2057538;28;20195;-66
2021/05/12 05:18:55;;;;;;;2.80;1.60;;;7.10;99.90;;;;;;2057630;28;20207;-66
2021/05/12 05:19:58;;;;;;;3.35;2.25;;;7.10;99.90;;;;;;2057320;28;20210;-65
2021/05/12 05:20:59;;;;;;;2.45;1.85;;;7.10;99.90;;;;;;2057529;28;20647;-65
2021/05/12 05:22:01;;;;;;;3.33;1.90;;;7.20;99.90;;;;;;2056650;28;20264;-66
2021/05/12 05:23:05;;;;;;;1.95;1.58;;;7.30;99.90;;;;;;2057073;28;20230;-66
2021/05/12 05:24:06;;;;;;;2.80;1.80;;;7.30;99.90;;;;;;2057442;28;20175;-66
2021/05/12 05:25:08;;;;;;;2.90;1.45;;;7.40;99.90;;;;;;2064825;28;20302;-66
2021/05/12 05:26:09;;;;;;;3.30;1.80;;;7.40;99.90;;;;;;2064536;28;20183;-65